Time;durP1;ratioP1;P1;durP2;ratioP2;P2;SDS_P1;SDS_P2;PMS_P1;PMS_P2;Temp;Humidity;BMP_temperature;BMP_pressure;BME280_temperature;BME280_humidity;BME280_pressure;Samples;Min_cycle;Max_cycle;Signal;HPM_P1;HPM_P2
2022/03/20 00:00:34;;;;;;;6.15;3.70;;;;;;;7.46;49.48;103048.56;3580294;40;20110;-63
2022/03/20 00:03:09;;;;;;;8.63;3.75;;;;;;;7.47;49.91;103058.34;3582040;40;20050;-63
2022/03/20 00:05:39;;;;;;;6.85;3.80;;;;;;;7.46;49.63;103061.03;3581270;40;20083;-63
2022/03/20 00:08:09;;;;;;;8.93;4.10;;;;;;;7.41;49.96;103053.94;3580336;40;20497;-62
2022/03/20 00:10:37;;;;;;;7.93;3.60;;;;;;;7.37;50.10;103043.31;3580381;40;20127;-64
2022/03/20 00:13:10;;;;;;;10.07;3.88;;;;;;;7.33;50.11;103045.16;3581626;40;20064;-66
2022/03/20 00:15:40;;;;;;;8.10;4.20;;;;;;;7.32;50.16;103053.19;3581064;40;20052;-62
2022/03/20 00:18:10;;;;;;;7.28;4.00;;;;;;;7.29;49.93;103042.50;3581178;40;20096;-63
2022/03/20 00:20:47;;;;;;;5.60;3.90;;;;;;;7.27;50.49;103039.00;3581398;40;20052;-64
2022/03/20 00:23:16;;;;;;;8.32;4.43;;;;;;;7.24;50.63;103033.69;3580391;40;20045;-64
2022/03/20 00:25:44;;;;;;;10.10;4.93;;;;;;;7.22;50.65;103034.56;3581277;40;20118;-62
2022/03/20 00:28:14;;;;;;;7.75;4.28;;;;;;;7.19;50.56;103031.91;3580253;40;20092;-62
2022/03/20 00:30:40;;;;;;;7.55;4.10;;;;;;;7.07;50.87;103024.06;3581688;40;20060;-63
2022/03/20 00:33:06;;;;;;;7.13;4.25;;;;;;;7.13;50.86;103025.75;3582875;40;20060;-64
2022/03/20 00:35:32;;;;;;;8.48;4.75;;;;;;;7.11;51.14;103014.22;3580120;40;20380;-63
2022/03/20 00:37:58;;;;;;;10.48;5.03;;;;;;;7.05;51.64;103001.81;3583013;40;20064;-63
2022/03/20 00:40:24;;;;;;;9.88;5.45;;;;;;;7.06;51.41;103008.03;3582453;40;20317;-64
2022/03/20 00:42:51;;;;;;;7.32;4.82;;;;;;;7.03;51.99;102994.69;3583416;40;20059;-63
2022/03/20 00:45:17;;;;;;;15.95;5.75;;;;;;;6.99;51.68;102991.19;3582316;40;20379;-63
2022/03/20 00:47:42;;;;;;;11.80;5.55;;;;;;;6.95;51.82;102992.13;3581895;40;20044;-64
2022/03/20 00:50:08;;;;;;;8.35;5.32;;;;;;;6.92;51.60;102985.03;3583705;40;20052;-65
2022/03/20 00:52:35;;;;;;;11.35;5.05;;;;;;;6.88;51.98;102985.06;3581602;40;20057;-63
2022/03/20 00:55:01;;;;;;;9.63;5.63;;;;;;;6.82;52.28;102982.44;3582553;40;20083;-64
2022/03/20 00:57:27;;;;;;;9.02;5.28;;;;;;;6.77;52.17;102984.31;3581674;40;20052;-63
2022/03/20 00:59:53;;;;;;;10.68;5.63;;;;;;;6.71;52.50;102988.81;3581460;40;20056;-64
2022/03/20 01:02:19;;;;;;;11.57;6.00;;;;;;;6.63;52.87;102972.00;3580881;40;20088;-63
2022/03/20 01:04:45;;;;;;;11.63;6.10;;;;;;;6.56;53.09;102970.28;3582233;40;20391;-65
2022/03/20 01:07:11;;;;;;;11.40;5.88;;;;;;;6.53;53.12;102972.97;3581294;40;20098;-63
2022/03/20 01:09:36;;;;;;;11.07;6.28;;;;;;;6.47;53.42;102965.00;3582084;40;20049;-62
2022/03/20 01:12:04;;;;;;;8.95;6.07;;;;;;;6.42;53.39;102967.75;3581179;40;20133;-62
2022/03/20 01:14:30;;;;;;;8.43;5.90;;;;;;;6.35;54.07;102965.16;3581907;40;20363;-63
2022/03/20 01:16:56;;;;;;;12.27;6.47;;;;;;;6.33;54.20;102962.50;3581576;40;20130;-66
2022/03/20 01:19:23;;;;;;;7.45;5.28;;;;;;;6.09;54.19;102926.25;3581443;40;20040;-64
2022/03/20 01:21:50;;;;;;;11.73;6.55;;;;;;;6.24;54.30;102958.13;3583205;40;20048;-64
2022/03/20 01:24:16;;;;;;;11.88;7.03;;;;;;;6.22;54.23;102948.38;3582915;40;20044;-64
2022/03/20 01:26:41;;;;;;;13.07;7.10;;;;;;;6.13;54.84;102954.69;3580189;40;20055;-63
2022/03/20 01:29:07;;;;;;;14.60;6.75;;;;;;;6.10;55.45;102946.69;3581736;40;20067;-63
2022/03/20 01:31:35;;;;;;;10.65;6.70;;;;;;;6.04;54.80;102941.41;3581625;40;20069;-63
2022/03/20 01:34:01;;;;;;;12.30;7.03;;;;;;;5.85;55.61;102907.75;3583035;40;20068;-63
2022/03/20 01:36:27;;;;;;;11.48;7.05;;;;;;;5.97;55.39;102926.34;3581508;40;20074;-64
2022/03/20 01:38:54;;;;;;;13.65;7.70;;;;;;;5.95;55.38;102917.47;3582769;40;20044;-63
2022/03/20 01:41:21;;;;;;;12.90;7.43;;;;;;;5.94;55.53;102923.72;3583158;40;20310;-64
2022/03/20 01:44:00;;;;;;;14.50;7.50;;;;;;;5.90;54.85;102919.25;3582472;40;20125;-63
2022/03/20 01:46:27;;;;;;;12.15;8.13;;;;;;;5.89;55.22;102909.47;3582334;40;20104;-63
2022/03/20 01:48:53;;;;;;;13.30;8.60;;;;;;;5.76;55.30;102892.69;3581712;40;20058;-64
2022/03/20 01:54:03;;;;;;;12.68;8.27;;;;;;;5.87;55.01;102898.81;3583224;40;20092;-64
2022/03/20 01:56:32;;;;;;;14.75;9.10;;;;;;;5.87;54.90;102897.91;3582300;40;20063;-63
2022/03/20 01:59:01;;;;;;;15.57;9.48;;;;;;;5.68;54.48;102868.75;3583393;40;20097;-62
2022/03/20 02:01:26;;;;;;;16.00;9.40;;;;;;;5.82;54.88;102895.31;3582036;40;20310;-63
2022/03/20 02:03:53;;;;;;;14.73;10.30;;;;;;;5.82;54.55;102895.31;3582517;40;20084;-63
2022/03/20 02:06:19;;;;;;;18.23;10.75;;;;;;;5.84;54.74;102888.19;3582374;40;20048;-63
2022/03/20 02:08:45;;;;;;;17.05;10.65;;;;;;;5.82;54.62;102880.16;3579023;40;20152;-63
2022/03/20 02:11:10;;;;;;;21.50;11.90;;;;;;;5.80;54.51;102879.31;3581841;40;20048;-62
2022/03/20 02:13:36;;;;;;;16.92;12.07;;;;;;;5.81;53.82;102873.06;3580345;40;20060;-65
2022/03/20 02:16:02;;;;;;;18.23;12.35;;;;;;;5.81;53.83;102870.41;3582066;40;20153;-63
2022/03/20 02:18:28;;;;;;;17.95;12.35;;;;;;;5.80;53.83;102868.66;3582094;40;20088;-63
2022/03/20 02:20:55;;;;;;;19.38;13.18;;;;;;;5.82;53.97;102869.50;3582369;40;20388;-63
2022/03/20 02:23:20;;;;;;;22.65;13.40;;;;;;;5.70;53.99;102848.25;3582540;40;20093;-62
2022/03/20 02:25:51;;;;;;;20.55;13.40;;;;;;;5.81;53.35;102862.41;3581618;40;21919;-65
2022/03/20 02:28:18;;;;;;;21.95;13.35;;;;;;;5.82;53.32;102860.59;3582635;40;20052;-65
2022/03/20 02:30:48;;;;;;;18.52;13.73;;;;;;;5.62;53.62;102820.78;3581908;40;20102;-63
2022/03/20 02:33:14;;;;;;;22.80;14.45;;;;;;;5.66;52.92;102824.28;3582872;40;20078;-63
2022/03/20 02:35:40;;;;;;;19.35;13.43;;;;;;;5.78;53.48;102838.41;3581400;40;20057;-64
2022/03/20 02:38:10;;;;;;;21.38;13.88;;;;;;;5.78;52.64;102841.06;3580999;40;20078;-63
2022/03/20 02:40:36;;;;;;;22.95;15.27;;;;;;;5.73;52.89;102842.88;3582195;40;20110;-63
2022/03/20 02:43:06;;;;;;;20.88;14.60;;;;;;;5.71;53.37;102842.03;3582156;40;20161;-63
2022/03/20 02:45:32;;;;;;;21.23;14.70;;;;;;;5.70;53.17;102837.59;3581378;40;20059;-64
2022/03/20 02:48:01;;;;;;;20.73;14.13;;;;;;;5.73;52.91;102834.88;3582082;40;20049;-64
2022/03/20 02:50:34;;;;;;;22.10;14.93;;;;;;;5.74;52.97;102830.44;3581304;40;20063;-63
2022/03/20 02:53:11;;;;;;;23.67;14.97;;;;;;;5.70;53.04;102820.69;3580927;40;20756;-65
2022/03/20 02:55:40;;;;;;;20.83;15.27;;;;;;;5.71;52.73;102823.34;3580225;40;20063;-63
2022/03/20 02:58:13;;;;;;;21.10;14.77;;;;;;;5.71;52.30;102818.03;3582792;40;20087;-63
2022/03/20 03:00:41;;;;;;;23.00;15.88;;;;;;;5.71;53.06;102831.38;3581182;40;20056;-62
2022/03/20 03:03:10;;;;;;;24.40;16.52;;;;;;;5.74;52.50;102828.66;3582553;40;20121;-65
2022/03/20 03:05:37;;;;;;;24.23;15.45;;;;;;;5.73;52.85;102821.53;3581357;40;20375;-63
2022/03/20 03:10:57;;;;;;;24.92;16.35;;;;;;;5.65;53.32;102817.19;3581710;40;20161;-63
2022/03/20 03:13:30;;;;;;;26.30;16.02;;;;;;;5.61;52.87;102810.97;3582567;40;20052;-62
2022/03/20 03:15:59;;;;;;;24.83;16.23;;;;;;;5.58;52.75;102805.66;3581578;40;20149;-62
2022/03/20 03:18:26;;;;;;;21.42;15.25;;;;;;;5.56;53.14;102797.69;3581376;40;20426;-66
2022/03/20 03:20:52;;;;;;;25.25;16.10;;;;;;;5.56;53.01;102799.50;3581273;40;20052;-63
2022/03/20 03:23:20;;;;;;;22.67;16.05;;;;;;;5.54;52.77;102798.59;3579858;40;20108;-63
2022/03/20 03:25:47;;;;;;;24.52;16.13;;;;;;;5.55;52.96;102795.94;3581248;40;20380;-64
2022/03/20 03:28:13;;;;;;;22.25;16.38;;;;;;;5.52;52.37;102779.09;3581129;40;20056;-63
2022/03/20 03:30:46;;;;;;;23.13;16.92;;;;;;;5.52;52.37;102789.75;3581071;40;20068;-62
2022/03/20 03:33:16;;;;;;;29.90;17.80;;;;;;;5.43;52.35;102768.50;3582192;40;20083;-63
2022/03/20 03:35:42;;;;;;;25.48;16.98;;;;;;;5.38;52.90;102762.31;3580292;40;20131;-63
2022/03/20 03:38:15;;;;;;;25.88;16.63;;;;;;;5.37;53.08;102764.09;3581455;40;20368;-63
2022/03/20 03:40:44;;;;;;;27.05;17.23;;;;;;;5.41;52.78;102773.81;3580949;40;20059;-63
2022/03/20 03:43:11;;;;;;;24.33;17.20;;;;;;;5.41;52.74;102764.94;3581052;40;20078;-63
2022/03/20 03:45:39;;;;;;;26.13;18.10;;;;;;;5.32;53.32;102749.91;3581182;40;20060;-62
2022/03/20 03:48:05;;;;;;;25.85;17.73;;;;;;;5.37;53.35;102748.09;3582680;40;20052;-63
2022/03/20 03:50:31;;;;;;;23.67;17.55;;;;;;;5.34;53.56;102734.78;3580999;40;20048;-63
2022/03/20 03:52:57;;;;;;;24.88;17.58;;;;;;;5.34;53.43;102742.78;3580867;40;20424;-63
2022/03/20 03:55:23;;;;;;;26.83;17.67;;;;;;;5.31;53.45;102748.16;3581424;40;20137;-63
2022/03/20 03:57:51;;;;;;;33.13;18.52;;;;;;;5.28;53.66;102750.84;3581648;40;20059;-63
2022/03/20 04:00:20;;;;;;;28.08;18.67;;;;;;;5.26;53.23;102745.50;3581848;40;20055;-63
2022/03/20 04:02:48;;;;;;;28.88;18.33;;;;;;;5.14;53.27;102729.66;3580651;40;20060;-65
2022/03/20 04:05:15;;;;;;;30.33;18.98;;;;;;;5.23;53.42;102744.66;3583086;40;20048;-64
2022/03/20 04:07:41;;;;;;;31.52;19.77;;;;;;;5.18;53.84;102735.84;3580645;40;20065;-64
2022/03/20 04:10:08;;;;;;;26.73;18.58;;;;;;;5.15;53.36;102730.53;3583709;40;20048;-62
2022/03/20 04:12:40;;;;;;;26.45;18.95;;;;;;;5.10;53.84;102727.88;3582880;40;20044;-64
2022/03/20 04:15:11;;;;;;;28.00;18.88;;;;;;;4.73;53.84;102666.91;3601474;23;20044;-61
2022/03/20 04:17:39;;;;;;;24.83;18.83;;;;;;;4.99;53.93;102713.78;3595822;39;20051;-61
2022/03/20 04:20:06;;;;;;;29.27;19.27;;;;;;;4.92;54.36;102709.41;3592697;40;20052;-61
2022/03/20 04:22:36;;;;;;;28.60;18.73;;;;;;;4.69;54.81;102683.78;3596072;39;20047;-62
2022/03/20 04:25:04;;;;;;;26.60;18.10;;;;;;;4.70;54.98;102687.38;3593527;40;20101;-62
2022/03/20 04:27:31;;;;;;;29.10;19.27;;;;;;;4.51;55.02;102662.66;3596474;39;20060;-62
2022/03/20 04:29:57;;;;;;;27.15;19.38;;;;;;;4.62;55.38;102679.41;3589974;39;20056;-62
2022/03/20 04:32:23;;;;;;;28.50;19.38;;;;;;;4.64;55.58;102680.28;3593642;39;20357;-63
2022/03/20 04:34:49;;;;;;;26.35;18.63;;;;;;;4.65;55.57;102684.72;3594198;39;20068;-62
2022/03/20 04:37:17;;;;;;;31.05;19.33;;;;;;;4.54;56.43;102667.94;3593559;40;20055;-62
2022/03/20 04:39:43;;;;;;;26.80;19.08;;;;;;;4.55;55.85;102669.72;3594087;40;20400;-62
2022/03/20 04:42:09;;;;;;;32.15;19.75;;;;;;;4.44;55.98;102661.81;3592866;40;20402;-62
2022/03/20 04:44:39;;;;;;;27.40;18.98;;;;;;;4.45;56.06;102681.31;3594346;40;20048;-62
2022/03/20 04:58:28;;;;;;;30.23;20.05;;;;;;;4.43;56.27;102687.53;3595286;40;20073;-61
2022/03/20 05:00:50;;;;;;;;;;;;;;;4.27;57.01;102661.00;3594989;40;20145;-62
2022/03/20 05:03:16;;;;;;;28.83;19.42;;;;;;;4.26;56.66;102651.28;3593433;40;19940;-62
2022/03/20 05:05:41;;;;;;;30.25;19.50;;;;;;;4.21;57.18;102656.59;3594672;39;20056;-62
2022/03/20 05:08:07;;;;;;;33.83;19.20;;;;;;;4.15;56.92;102646.91;3593217;40;20059;-63
2022/03/20 05:13:19;;;;;;;;;;;;;;;3.99;57.12;102620.38;3594513;40;20073;-62
2022/03/20 05:15:45;;;;;;;28.20;18.23;;;;;;;3.80;57.29;102588.53;3590318;39;19947;-63
2022/03/20 05:18:11;;;;;;;29.63;19.42;;;;;;;4.01;57.34;102634.56;3588961;40;20055;-62
2022/03/20 05:20:36;;;;;;;30.83;19.98;;;;;;;4.04;56.96;102634.53;3591362;40;20062;-62
2022/03/20 05:23:02;;;;;;;29.90;20.17;;;;;;;4.00;56.85;102625.69;3589707;39;20048;-62
2022/03/20 05:25:29;;;;;;;28.98;20.33;;;;;;;4.04;57.08;102634.53;3590823;40;20056;-62
2022/03/20 05:27:56;;;;;;;32.30;20.58;;;;;;;3.76;57.18;102584.13;3593788;40;20056;-62
2022/03/20 05:30:23;;;;;;;28.83;19.58;;;;;;;4.06;56.67;102638.97;3594948;39;20048;-62
2022/03/20 05:32:49;;;;;;;31.33;20.45;;;;;;;4.08;56.27;102630.97;3595757;39;20052;-62
2022/03/20 05:35:16;;;;;;;30.17;20.58;;;;;;;4.05;57.35;102631.84;3596560;39;20388;-62
2022/03/20 05:37:43;;;;;;;31.52;19.77;;;;;;;4.04;55.99;102629.22;3595422;40;20046;-63
2022/03/20 05:40:10;;;;;;;30.02;19.77;;;;;;;3.87;56.61;102587.63;3595386;39;20044;-66
2022/03/20 05:42:36;;;;;;;28.05;20.05;;;;;;;4.05;56.15;102617.66;3591880;40;20126;-64
2022/03/20 05:45:03;;;;;;;30.60;20.33;;;;;;;4.03;56.88;102612.38;3595714;40;20052;-64
2022/03/20 05:47:32;;;;;;;28.67;19.25;;;;;;;3.97;56.11;102606.22;3592542;39;20059;-64
2022/03/20 05:50:02;;;;;;;28.75;20.10;;;;;;;3.99;56.71;102607.06;3594340;40;20067;-64
2022/03/20 05:52:31;;;;;;;27.65;19.10;;;;;;;4.01;55.93;102607.94;3591840;40;20088;-64
2022/03/20 05:55:04;;;;;;;32.78;19.25;;;;;;;4.01;56.80;102608.84;3590632;40;20619;-64
2022/03/20 06:00:27;;;;;;;29.23;19.38;;;;;;;4.05;56.08;102605.25;3590317;40;20055;-61
2022/03/20 06:02:53;;;;;;;30.58;19.80;;;;;;;4.05;56.00;102599.94;3591107;39;20131;-62
2022/03/20 06:05:19;;;;;;;27.52;19.38;;;;;;;3.98;55.29;102587.56;3591539;39;20343;-62
2022/03/20 06:07:47;;;;;;;28.05;19.55;;;;;;;4.11;55.35;102605.22;3587981;40;20048;-63
2022/03/20 06:10:19;;;;;;;26.30;18.02;;;;;;;4.15;55.40;102601.66;3591909;40;20271;-61
2022/03/20 06:12:46;;;;;;;31.05;19.25;;;;;;;4.17;55.36;102606.97;3590742;40;20414;-61
2022/03/20 06:15:13;;;;;;;26.92;18.27;;;;;;;4.08;54.84;102586.59;3589134;39;20067;-62
2022/03/20 06:17:45;;;;;;;27.35;18.48;;;;;;;4.28;53.59;102599.78;3588906;40;20063;-61
2022/03/20 06:20:13;;;;;;;29.63;18.73;;;;;;;4.29;53.51;102596.22;3590476;40;20052;-62
2022/03/20 06:22:39;;;;;;;28.85;18.75;;;;;;;4.34;54.18;102590.84;3591489;39;20068;-63
2022/03/20 06:25:08;;;;;;;26.67;18.52;;;;;;;4.39;52.97;102589.94;3589345;40;20117;-63
2022/03/20 06:27:51;;;;;;;28.35;18.35;;;;;;;4.38;53.42;102588.19;3590977;39;20062;-63
2022/03/20 06:30:20;;;;;;;24.93;17.33;;;;;;;4.39;52.46;102573.06;3587133;40;20049;-62
2022/03/20 06:32:47;;;;;;;26.75;17.35;;;;;;;4.51;52.18;102577.44;3586961;40;20628;-62
2022/03/20 06:35:17;;;;;;;31.35;17.52;;;;;;;4.70;51.93;102595.00;3589895;40;20060;-64
2022/03/20 06:37:46;;;;;;;26.55;17.83;;;;;;;4.74;51.22;102586.09;3588925;39;20044;-63
2022/03/20 06:40:14;;;;;;;28.05;17.88;;;;;;;4.83;51.14;102588.66;3588477;40;20084;-62
2022/03/20 06:42:42;;;;;;;26.67;17.33;;;;;;;4.98;49.69;102579.66;3589142;40;20063;-63
2022/03/20 06:45:11;;;;;;;26.67;17.25;;;;;;;5.02;49.63;102564.50;3587965;40;20063;-62
2022/03/20 06:47:39;;;;;;;23.40;16.67;;;;;;;5.12;49.79;102564.38;3588164;40;20044;-61
2022/03/20 06:50:07;;;;;;;26.98;16.27;;;;;;;5.24;49.72;102567.81;3593512;40;20211;-62
2022/03/20 06:52:33;;;;;;;24.60;17.08;;;;;;;5.35;49.48;102569.44;3589192;40;20063;-61
2022/03/20 06:55:01;;;;;;;23.15;17.02;;;;;;;5.36;49.08;102559.66;3588934;40;20068;-62
2022/03/20 06:57:28;;;;;;;26.70;17.23;;;;;;;5.39;48.46;102543.59;3588614;39;20051;-61
2022/03/20 06:59:57;;;;;;;25.75;17.35;;;;;;;5.53;48.09;102562.13;3587171;40;20064;-63
2022/03/20 07:02:23;;;;;;;25.08;16.67;;;;;;;5.67;48.31;102560.13;3589380;40;20059;-62
2022/03/20 07:04:53;;;;;;;25.02;16.73;;;;;;;5.65;47.63;102545.94;3589887;40;20043;-63
2022/03/20 07:07:22;;;;;;;24.50;15.93;;;;;;;5.77;47.70;102553.78;3590189;40;20052;-63
2022/03/20 07:09:47;;;;;;;27.30;16.75;;;;;;;5.83;47.43;102544.78;3591635;39;20059;-63
2022/03/20 07:12:13;;;;;;;31.35;19.58;;;;;;;5.80;46.98;102540.41;3587646;40;20070;-61
2022/03/20 07:14:42;;;;;;;23.20;15.98;;;;;;;5.88;46.50;102542.94;3589647;40;20275;-61
2022/03/20 07:17:12;;;;;;;26.02;16.52;;;;;;;5.81;45.86;102526.16;3589768;40;20075;-61
2022/03/20 07:19:43;;;;;;;27.23;16.27;;;;;;;5.95;45.92;102535.75;3588763;39;20055;-62
2022/03/20 07:22:11;;;;;;;23.92;16.00;;;;;;;5.95;46.19;102517.06;3591605;39;20044;-63
2022/03/20 07:24:42;;;;;;;25.73;16.60;;;;;;;6.02;45.92;102524.06;3593615;39;20052;-63
2022/03/20 07:29:55;;;;;;;27.75;16.20;;;;;;;6.04;45.45;102499.13;3589802;40;20366;-62
2022/03/20 07:32:21;;;;;;;24.60;16.42;;;;;;;6.14;45.15;102507.00;3593218;39;20059;-63
2022/03/20 07:34:47;;;;;;;24.60;16.08;;;;;;;6.19;44.68;102511.34;3590427;40;20056;-61
2022/03/20 07:37:16;;;;;;;25.33;16.63;;;;;;;6.27;45.01;102520.09;3592540;40;20400;-62
2022/03/20 07:39:43;;;;;;;28.13;15.98;;;;;;;6.30;44.29;102528.97;3589405;39;20045;-63
2022/03/20 07:42:09;;;;;;;23.23;16.08;;;;;;;6.25;44.19;102521.94;3595188;39;20294;-62
2022/03/20 07:44:36;;;;;;;24.33;16.02;;;;;;;5.74;43.71;102432.84;3591741;39;20067;-62
2022/03/20 07:47:03;;;;;;;23.45;16.10;;;;;;;6.28;45.10;102524.56;3592316;40;20124;-62
2022/03/20 07:49:30;;;;;;;23.33;16.35;;;;;;;6.31;44.31;102522.72;3593323;39;20577;-62
2022/03/20 07:51:57;;;;;;;24.38;15.68;;;;;;;6.30;43.89;102512.97;3592870;39;20231;-62
2022/03/20 07:54:24;;;;;;;22.83;16.05;;;;;;;6.28;43.74;102507.66;3589743;40;20055;-62
2022/03/20 07:56:50;;;;;;;25.30;15.43;;;;;;;6.27;43.57;102514.75;3592626;40;20274;-63
2022/03/20 07:59:16;;;;;;;22.88;15.43;;;;;;;6.30;43.86;102524.50;3590084;39;20326;-63
2022/03/20 08:01:42;;;;;;;26.50;16.38;;;;;;;6.34;43.75;102522.69;3589990;39;20087;-62
2022/03/20 08:04:09;;;;;;;24.67;15.05;;;;;;;6.34;43.80;102510.19;3594513;39;20056;-63
2022/03/20 08:06:35;;;;;;;26.90;16.08;;;;;;;5.95;44.22;102437.00;3597383;39;20047;-62
2022/03/20 08:09:00;;;;;;;24.98;16.65;;;;;;;6.42;44.54;102523.44;3596226;39;20059;-63
2022/03/20 08:11:28;;;;;;;25.55;16.80;;;;;;;6.45;43.85;102510.03;3588798;40;20052;-63
2022/03/20 08:13:55;;;;;;;24.50;15.35;;;;;;;6.44;43.60;102511.81;3593989;40;20036;-63
2022/03/20 08:16:25;;;;;;;23.08;15.23;;;;;;;6.45;43.30;102518.91;3594239;40;20052;-62
2022/03/20 08:18:52;;;;;;;24.92;15.85;;;;;;;6.46;43.56;102525.13;3593473;40;20761;-62
2022/03/20 08:21:18;;;;;;;22.52;15.70;;;;;;;6.49;43.22;102517.94;3594748;40;20117;-62
2022/03/20 08:23:44;;;;;;;26.10;16.10;;;;;;;6.53;42.87;102515.22;3594506;39;20052;-63
2022/03/20 08:26:11;;;;;;;25.98;16.27;;;;;;;6.55;42.85;102500.06;3595032;40;20040;-63
2022/03/20 08:28:42;;;;;;;25.55;16.30;;;;;;;6.58;43.05;102503.56;3591595;39;20052;-64
2022/03/20 08:31:08;;;;;;;28.15;15.90;;;;;;;6.63;43.23;102493.66;3590734;40;20053;-63
2022/03/20 08:33:36;;;;;;;24.92;16.23;;;;;;;6.68;42.80;102490.91;3589362;40;20055;-62
2022/03/20 08:36:07;;;;;;;22.08;15.73;;;;;;;6.71;42.83;102493.50;3589534;40;20052;-61
2022/03/20 08:38:33;;;;;;;24.90;16.05;;;;;;;6.72;42.98;102485.50;3589007;40;20055;-64
2022/03/20 08:41:00;;;;;;;24.38;16.30;;;;;;;6.72;42.70;102481.91;3588146;40;20075;-64
2022/03/20 08:43:27;;;;;;;25.88;16.50;;;;;;;6.74;42.92;102483.66;3586823;40;20045;-64
2022/03/20 08:45:53;;;;;;;23.33;16.25;;;;;;;6.30;43.01;102403.47;3589225;40;20083;-64
2022/03/20 08:48:18;;;;;;;24.35;16.40;;;;;;;6.77;43.47;102481.84;3589117;40;20052;-64
2022/03/20 08:50:48;;;;;;;25.48;16.40;;;;;;;6.80;43.36;102481.78;3588525;40;20067;-65
2022/03/20 08:53:19;;;;;;;24.60;15.88;;;;;;;6.84;42.98;102488.81;3590757;39;20040;-62
2022/03/20 08:55:49;;;;;;;25.20;16.25;;;;;;;6.84;42.73;102499.50;3594107;40;20055;-62
2022/03/20 08:58:16;;;;;;;29.73;16.73;;;;;;;6.76;42.21;102480.09;3595464;39;20412;-62
2022/03/20 09:00:42;;;;;;;26.25;15.90;;;;;;;6.80;42.53;102490.66;3593754;40;20051;-62
2022/03/20 09:03:10;;;;;;;26.48;16.13;;;;;;;6.84;42.93;102484.34;3590776;40;20052;-63
2022/03/20 09:05:35;;;;;;;26.38;16.50;;;;;;;6.90;42.39;102494.03;3591432;39;20045;-61
2022/03/20 09:08:01;;;;;;;28.60;16.92;;;;;;;6.83;42.88;102474.56;3591237;40;20054;-62
2022/03/20 09:10:27;;;;;;;24.98;16.73;;;;;;;6.97;42.09;102479.63;3591289;40;20074;-62
2022/03/20 09:12:55;;;;;;;25.92;15.77;;;;;;;7.06;42.17;102473.22;3594673;40;20053;-62
2022/03/20 09:15:22;;;;;;;23.17;16.05;;;;;;;6.95;42.73;102417.31;3590321;39;20405;-62
2022/03/20 09:20:37;;;;;;;23.75;16.17;;;;;;;8.09;40.18;102455.69;3591173;40;20386;-62
2022/03/20 09:23:05;;;;;;;24.23;15.73;;;;;;;8.68;39.89;102457.72;3593455;40;20448;-63
2022/03/20 09:25:32;;;;;;;23.65;16.02;;;;;;;9.30;38.55;102444.31;3589595;39;20092;-61
2022/03/20 09:27:58;;;;;;;22.60;16.58;;;;;;;9.70;37.84;102441.22;3592818;40;20055;-63
2022/03/20 09:30:24;;;;;;;25.08;16.75;;;;;;;9.97;36.13;102409.91;3588357;40;20089;-63
2022/03/20 09:32:50;;;;;;;22.05;15.77;;;;;;;10.45;36.66;102436.03;3588857;40;20060;-63
2022/03/20 09:35:17;;;;;;;25.92;16.55;;;;;;;10.53;34.98;102426.81;3594419;39;20067;-62
2022/03/20 09:37:43;;;;;;;26.25;17.60;;;;;;;10.53;35.80;102437.56;3589496;39;20059;-63
2022/03/20 09:40:10;;;;;;;28.13;17.42;;;;;;;10.22;35.10;102403.69;3592599;39;20055;-63
2022/03/20 09:42:36;;;;;;;26.10;16.95;;;;;;;10.16;35.51;102401.22;3592000;40;20048;-64
2022/03/20 09:45:05;;;;;;;24.80;17.60;;;;;;;10.21;36.34;102409.97;3591718;39;20063;-63
2022/03/20 09:47:39;;;;;;;25.40;18.02;;;;;;;10.18;36.01;102421.75;3589904;40;20313;-62
2022/03/20 09:50:06;;;;;;;;;;;;;;;10.09;36.15;102400.56;3593396;39;20095;-63
2022/03/20 09:52:34;;;;;;;27.10;18.27;;;;;;;10.03;36.65;102397.22;3591457;39;19978;-63
2022/03/20 09:55:01;;;;;;;29.02;18.13;;;;;;;9.97;36.13;102411.72;3591386;39;20406;-62
2022/03/20 09:57:29;;;;;;;26.65;18.33;;;;;;;9.91;37.01;102418.16;3595954;39;20054;-63
2022/03/20 09:59:58;;;;;;;25.80;18.58;;;;;;;9.78;36.53;102424.88;3593035;39;20060;-63
2022/03/20 10:02:28;;;;;;;29.30;19.73;;;;;;;9.64;36.77;102422.66;3590927;40;20062;-63
2022/03/20 10:05:07;;;;;;;28.65;19.33;;;;;;;9.47;37.23;102411.56;3593285;39;20121;-63
2022/03/20 10:07:40;;;;;;;25.13;18.45;;;;;;;9.43;37.23;102421.53;3591563;40;20093;-61
2022/03/20 10:10:31;;;;;;;24.63;17.63;;;;;;;9.26;37.99;102399.69;3590811;40;20088;-63
2022/03/20 10:12:59;;;;;;;25.67;17.48;;;;;;;9.34;38.61;102416.44;3592046;40;20100;-63
2022/03/20 10:15:36;;;;;;;26.63;19.17;;;;;;;9.39;38.28;102429.75;3585370;40;20117;-63
2022/03/20 10:18:06;;;;;;;25.88;19.00;;;;;;;9.13;37.90;102385.78;3610606;23;20058;-63
2022/03/20 10:20:47;;;;;;;26.42;19.35;;;;;;;8.89;38.25;102375.81;3589156;39;20043;-63
2022/03/20 10:23:31;;;;;;;27.60;20.33;;;;;;;9.21;38.98;102421.31;3591711;40;20464;-64
2022/03/20 10:25:59;;;;;;;28.63;19.88;;;;;;;9.19;38.75;102416.91;3587920;40;20118;-62
2022/03/20 10:28:36;;;;;;;32.20;21.65;;;;;;;9.18;39.00;102420.53;3583086;39;20074;-64
2022/03/20 10:31:04;;;;;;;28.75;21.30;;;;;;;9.20;39.36;102407.94;3581507;40;20052;-63
2022/03/20 10:33:30;;;;;;;29.33;20.58;;;;;;;9.35;38.84;102404.78;3580454;40;20059;-63
2022/03/20 10:36:19;;;;;;;28.92;20.95;;;;;;;9.04;39.40;102327.94;3578732;40;20048;-63
2022/03/20 10:38:48;;;;;;;30.20;22.20;;;;;;;9.63;41.95;102422.69;3582721;40;20058;-63
2022/03/20 10:41:26;;;;;;;34.35;22.55;;;;;;;9.77;43.50;102417.75;3582401;40;20041;-63
2022/03/20 10:43:56;;;;;;;34.22;23.02;;;;;;;9.96;44.07;102421.59;3580886;40;20111;-63
2022/03/20 10:46:32;;;;;;;29.73;22.27;;;;;;;9.91;43.73;102420.84;3579437;40;20052;-65
2022/03/20 10:49:01;;;;;;;31.65;22.67;;;;;;;9.81;44.78;102419.41;3580846;40;20115;-63
2022/03/20 10:51:41;;;;;;;31.33;23.15;;;;;;;9.63;45.49;102420.88;3578191;40;20080;-63
2022/03/20 10:54:21;;;;;;;29.88;22.63;;;;;;;9.50;45.69;102428.44;3578022;40;20100;-63
2022/03/20 10:56:59;;;;;;;30.40;22.13;;;;;;;9.42;45.47;102441.25;3580346;40;20064;-63
2022/03/20 10:59:29;;;;;;;32.42;22.85;;;;;;;9.48;46.39;102416.91;3580073;40;20087;-64
2022/03/20 11:01:55;;;;;;;33.30;24.15;;;;;;;9.57;46.81;102428.25;3580137;40;20342;-63
2022/03/20 11:04:23;;;;;;;31.92;23.05;;;;;;;9.58;47.11;102424.63;3580688;40;20048;-64
2022/03/20 11:06:54;;;;;;;33.28;23.52;;;;;;;9.57;47.81;102442.56;3582217;40;20058;-63
2022/03/20 11:09:21;;;;;;;33.63;24.42;;;;;;;9.38;48.27;102431.50;3578819;40;20087;-64
2022/03/20 11:11:51;;;;;;;33.45;24.63;;;;;;;9.32;49.11;102437.06;3578181;40;20260;-64
2022/03/20 11:14:21;;;;;;;30.17;24.55;;;;;;;9.07;50.38;102445.00;3575070;40;20063;-64
2022/03/20 11:16:51;;;;;;;31.25;24.45;;;;;;;8.71;50.63;102429.03;3581292;40;20091;-63
2022/03/20 11:19:25;;;;;;;31.27;23.77;;;;;;;8.91;50.46;102444.56;3582601;40;20071;-63
2022/03/20 11:21:59;;;;;;;36.72;25.63;;;;;;;8.88;51.23;102454.47;3579074;40;20054;-63
2022/03/20 11:24:26;;;;;;;32.65;24.50;;;;;;;8.89;51.08;102442.84;3580811;40;20055;-64
2022/03/20 11:27:00;;;;;;;35.60;25.08;;;;;;;8.86;51.73;102441.13;3578731;40;20628;-63
2022/03/20 11:29:31;;;;;;;31.35;25.10;;;;;;;8.73;51.62;102426.31;3578114;40;20052;-63
2022/03/20 11:32:01;;;;;;;31.60;24.60;;;;;;;8.72;51.61;102422.78;3580144;40;20078;-63
2022/03/20 11:34:30;;;;;;;34.15;25.20;;;;;;;8.66;51.17;102417.59;3580945;40;20056;-63
2022/03/20 11:37:10;;;;;;;32.22;23.67;;;;;;;8.75;51.38;102437.88;3580968;40;20060;-63
2022/03/20 11:39:39;;;;;;;34.17;24.75;;;;;;;8.74;51.64;102425.38;3581450;40;20060;-64
2022/03/20 11:42:28;;;;;;;31.45;23.55;;;;;;;8.79;52.38;102428.84;3581135;40;20453;-63
2022/03/20 11:45:10;;;;;;;32.78;24.80;;;;;;;8.86;52.35;102442.94;3576221;40;20061;-63
2022/03/20 11:47:39;;;;;;;32.47;23.50;;;;;;;8.90;51.31;102436.56;3579659;40;20063;-63
2022/03/20 11:50:22;;;;;;;34.08;24.10;;;;;;;8.87;51.59;102452.72;3581557;40;20060;-65
2022/03/20 11:53:01;;;;;;;31.77;22.73;;;;;;;8.89;51.44;102440.19;3580534;40;20115;-62